Time;durP1;ratioP1;P1;durP2;ratioP2;P2;SDS_P1;SDS_P2;PMS_P1;PMS_P2;Temp;Humidity;BMP_temperature;BMP_pressure;BME280_temperature;BME280_humidity;BME280_pressure;Samples;Min_cycle;Max_cycle;Signal;HPM_P1;HPM_P2
2023/12/10 00:02:09;;;;;;;17.38;4.32;;;;;;;;;;4891462;29;20419;-82
2023/12/10 00:04:36;;;;;;;25.85;5.20;;;;;;;;;;4876881;29;20053;-83
2023/12/10 00:07:02;;;;;;;23.70;3.83;;;;;;;;;;4876807;29;20834;-82
2023/12/10 00:09:28;;;;;;;22.42;3.63;;;;;;;;;;4877156;29;20415;-83
2023/12/10 00:11:54;;;;;;;23.85;4.43;;;;;;;;;;4875934;29;20052;-82
2023/12/10 00:14:20;;;;;;;22.00;3.67;;;;;;;;;;4891767;29;20068;-82
2023/12/10 00:16:46;;;;;;;24.65;4.68;;;;;;;;;;4878167;29;20049;-83
2023/12/10 00:19:12;;;;;;;17.10;4.00;;;;;;;;;;4859627;29;20044;-82
2023/12/10 00:21:38;;;;;;;16.55;3.70;;;;;;;;;;4859038;29;20045;-82
2023/12/10 00:24:05;;;;;;;21.50;4.22;;;;;;;;;;4876357;29;20055;-82
2023/12/10 00:26:31;;;;;;;22.80;4.55;;;;;;;;;;4875687;29;20057;-83
2023/12/10 00:28:57;;;;;;;24.20;5.05;;;;;;;;;;4876301;29;20072;-82
2023/12/10 00:31:23;;;;;;;23.25;4.00;;;;;;;;;;4874711;29;20522;-82
2023/12/10 00:33:49;;;;;;;23.45;4.15;;;;;;;;;;4884388;29;20076;-83
2023/12/10 00:36:15;;;;;;;23.45;3.95;;;;;;;;;;4879765;29;20049;-83
2023/12/10 00:38:42;;;;;;;22.75;4.35;;;;;;;;;;4857506;29;20104;-83
2023/12/10 00:41:11;;;;;;;29.38;4.07;;;;;;;;;;4858884;29;20128;-83
2023/12/10 00:43:37;;;;;;;17.67;3.75;;;;;;;;;;4871461;29;20100;-83
2023/12/10 00:46:04;;;;;;;21.15;4.20;;;;;;;;;;4870440;29;20041;-83
2023/12/10 00:48:30;;;;;;;18.17;4.22;;;;;;;;;;4871867;29;20511;-83
2023/12/10 00:50:56;;;;;;;23.75;4.18;;;;;;;;;;4872916;29;20096;-82
2023/12/10 00:53:22;;;;;;;20.60;3.97;;;;;;;;;;4871414;29;20045;-82
2023/12/10 00:55:48;;;;;;;23.75;4.00;;;;;;;;;;4857127;29;20063;-83
2023/12/10 00:58:15;;;;;;;20.40;3.85;;;;;;;;;;4856120;29;20666;-82
2023/12/10 01:00:42;;;;;;;25.17;4.75;;;;;;;;;;4874391;29;20468;-83
2023/12/10 01:03:08;;;;;;;18.05;3.72;;;;;;;;;;4876629;29;20052;-82
2023/12/10 01:05:34;;;;;;;15.57;3.25;;;;;;;;;;4875598;29;20104;-82
2023/12/10 01:08:00;;;;;;;19.35;3.50;;;;;;;;;;4888074;29;20131;-83
2023/12/10 01:10:26;;;;;;;16.92;2.80;;;;;;;;;;4873985;29;20124;-83
2023/12/10 01:12:52;;;;;;;15.82;3.22;;;;;;;;;;4888811;29;20071;-83
2023/12/10 01:15:29;;;;;;;14.10;3.38;;;;;;;;;;4889814;29;20045;-83
2023/12/10 01:17:58;;;;;;;20.10;3.85;;;;;;;;;;4859806;29;20512;-84
2023/12/10 01:20:26;;;;;;;15.85;3.20;;;;;;;;;;4874816;29;20407;-83
2023/12/10 01:22:52;;;;;;;16.63;3.15;;;;;;;;;;4874764;29;20117;-83
2023/12/10 01:25:18;;;;;;;19.42;3.55;;;;;;;;;;4869796;29;20687;-83
2023/12/10 01:27:44;;;;;;;14.30;3.38;;;;;;;;;;4890381;29;20128;-83
2023/12/10 01:30:10;;;;;;;18.83;3.13;;;;;;;;;;4889634;29;20495;-83
2023/12/10 01:32:36;;;;;;;20.05;4.05;;;;;;;;;;4875045;29;20192;-83
2023/12/10 01:35:04;;;;;;;20.92;4.45;;;;;;;;;;4889564;29;20535;-84
2023/12/10 01:37:30;;;;;;;16.65;3.55;;;;;;;;;;4875122;29;20064;-82
2023/12/10 01:39:56;;;;;;;18.77;4.00;;;;;;;;;;4874543;29;20048;-82
2023/12/10 01:42:22;;;;;;;13.98;3.15;;;;;;;;;;4874417;29;20052;-83
2023/12/10 01:44:48;;;;;;;26.08;4.10;;;;;;;;;;4874726;29;20143;-83
2023/12/10 01:47:18;;;;;;;19.52;3.35;;;;;;;;;;4889598;29;20817;-83
2023/12/10 01:49:44;;;;;;;18.63;3.65;;;;;;;;;;4876036;29;20057;-84
2023/12/10 01:52:10;;;;;;;19.58;3.47;;;;;;;;;;4884877;29;20052;-83
2023/12/10 01:54:36;;;;;;;15.77;3.95;;;;;;;;;;4886716;29;20053;-83
2023/12/10 01:57:02;;;;;;;18.20;3.65;;;;;;;;;;4856244;29;20081;-83
2023/12/10 01:59:29;;;;;;;16.67;3.38;;;;;;;;;;4857614;29;20522;-82
2023/12/10 02:01:56;;;;;;;19.08;4.07;;;;;;;;;;4860094;29;20581;-83
2023/12/10 02:04:22;;;;;;;19.13;3.90;;;;;;;;;;4888446;29;20048;-82
2023/12/10 02:06:48;;;;;;;21.92;4.20;;;;;;;;;;4890235;29;20056;-82
2023/12/10 02:09:18;;;;;;;18.73;3.80;;;;;;;;;;4874240;29;20059;-82
2023/12/10 02:11:44;;;;;;;17.55;4.35;;;;;;;;;;4873964;29;20133;-82
2023/12/10 02:14:10;;;;;;;21.25;4.22;;;;;;;;;;4870591;29;20056;-82
2023/12/10 02:16:36;;;;;;;21.27;3.95;;;;;;;;;;4875778;29;20064;-82
2023/12/10 02:19:02;;;;;;;26.70;4.45;;;;;;;;;;4875050;29;20128;-83
2023/12/10 02:21:30;;;;;;;18.30;4.07;;;;;;;;;;4858805;29;20063;-82
2023/12/10 02:24:01;;;;;;;21.70;4.35;;;;;;;;;;4875504;29;20056;-82
2023/12/10 02:26:28;;;;;;;19.95;4.10;;;;;;;;;;4887319;29;20526;-82
2023/12/10 02:28:54;;;;;;;23.23;4.95;;;;;;;;;;4885965;29;20049;-83
2023/12/10 02:31:20;;;;;;;17.92;3.95;;;;;;;;;;4870167;29;20049;-83
2023/12/10 02:33:47;;;;;;;21.63;3.83;;;;;;;;;;4854964;29;20112;-83
2023/12/10 02:36:13;;;;;;;22.40;4.88;;;;;;;;;;4869680;29;20879;-84
2023/12/10 02:38:39;;;;;;;26.30;4.03;;;;;;;;;;4870717;29;20049;-83
2023/12/10 02:41:05;;;;;;;18.50;4.10;;;;;;;;;;4876334;29;20790;-83
2023/12/10 02:43:31;;;;;;;17.77;3.58;;;;;;;;;;4876412;29;20045;-83
2023/12/10 02:45:58;;;;;;;20.98;4.22;;;;;;;;;;4894163;29;20136;-83
2023/12/10 02:48:24;;;;;;;17.55;4.00;;;;;;;;;;4877370;29;20049;-83
2023/12/10 02:50:50;;;;;;;21.98;4.05;;;;;;;;;;4876100;29;20491;-83
2023/12/10 02:53:16;;;;;;;23.73;4.40;;;;;;;;;;4885263;29;20061;-83
2023/12/10 02:55:43;;;;;;;20.95;3.72;;;;;;;;;;4872068;29;20072;-82
2023/12/10 02:58:09;;;;;;;19.35;4.35;;;;;;;;;;4877439;29;20491;-83
2023/12/10 03:00:35;;;;;;;23.30;4.00;;;;;;;;;;4877868;29;20067;-84
2023/12/10 03:03:01;;;;;;;19.90;3.88;;;;;;;;;;4860948;29;20665;-82
2023/12/10 03:05:27;;;;;;;19.75;4.72;;;;;;;;;;4878927;29;20060;-83
2023/12/10 03:07:53;;;;;;;16.95;3.80;;;;;;;;;;4860930;29;20080;-83
2023/12/10 03:10:20;;;;;;;20.30;4.10;;;;;;;;;;4876773;29;20045;-82
2023/12/10 03:12:46;;;;;;;22.67;4.07;;;;;;;;;;4862327;29;20045;-82
2023/12/10 03:15:12;;;;;;;20.15;4.07;;;;;;;;;;4879021;29;20112;-83
2023/12/10 03:17:38;;;;;;;16.60;4.15;;;;;;;;;;4877336;29;20064;-83
2023/12/10 03:20:05;;;;;;;20.42;4.20;;;;;;;;;;4877449;29;20530;-83
2023/12/10 03:22:31;;;;;;;22.92;4.80;;;;;;;;;;4876616;29;20037;-81
2023/12/10 03:24:59;;;;;;;17.92;3.70;;;;;;;;;;4876648;29;20080;-82
2023/12/10 03:27:25;;;;;;;20.88;3.67;;;;;;;;;;4875739;29;20424;-82
2023/12/10 03:29:51;;;;;;;24.50;4.57;;;;;;;;;;4890701;29;20056;-82
2023/12/10 03:32:17;;;;;;;20.17;4.13;;;;;;;;;;4876619;29;20424;-81
2023/12/10 03:34:43;;;;;;;22.13;4.40;;;;;;;;;;4860005;29;20428;-81
2023/12/10 03:37:09;;;;;;;19.27;3.67;;;;;;;;;;4876887;29;20053;-81
2023/12/10 03:39:35;;;;;;;14.80;3.58;;;;;;;;;;4874821;29;20585;-82
2023/12/10 03:42:01;;;;;;;16.58;3.85;;;;;;;;;;4878788;29;20457;-82
2023/12/10 03:44:28;;;;;;;18.83;3.15;;;;;;;;;;4877443;29;20061;-83
2023/12/10 03:46:54;;;;;;;15.98;3.63;;;;;;;;;;4891051;29;20052;-81
2023/12/10 03:49:20;;;;;;;17.50;3.75;;;;;;;;;;4891625;29;20061;-82
2023/12/10 03:51:46;;;;;;;12.82;3.17;;;;;;;;;;4876783;29;20067;-81
2023/12/10 03:54:12;;;;;;;15.27;3.00;;;;;;;;;;4892288;29;20735;-81
2023/12/10 03:56:38;;;;;;;16.13;2.88;;;;;;;;;;4876056;29;20385;-81
2023/12/10 03:59:04;;;;;;;20.33;3.10;;;;;;;;;;4875485;29;20547;-82
2023/12/10 04:01:30;;;;;;;16.85;2.90;;;;;;;;;;4891297;29;20137;-81
2023/12/10 04:03:56;;;;;;;17.17;2.92;;;;;;;;;;4891449;29;20407;-82
2023/12/10 04:06:22;;;;;;;11.88;2.38;;;;;;;;;;4892676;29;20661;-81
2023/12/10 04:08:48;;;;;;;12.65;2.80;;;;;;;;;;4890233;29;20057;-81
2023/12/10 04:11:24;;;;;;;12.48;2.25;;;;;;;;;;4890057;29;20215;-82
2023/12/10 04:13:50;;;;;;;14.35;2.95;;;;;;;;;;4862389;29;20073;-82
2023/12/10 04:16:32;;;;;;;12.02;2.88;;;;;;;;;;4890422;29;20059;-82
2023/12/10 04:18:58;;;;;;;16.45;2.95;;;;;;;;;;4876406;29;20139;-82
2023/12/10 04:21:24;;;;;;;12.80;2.67;;;;;;;;;;4890715;29;20578;-81
2023/12/10 04:23:51;;;;;;;11.02;2.50;;;;;;;;;;4891354;29;20061;-81
2023/12/10 04:26:18;;;;;;;10.57;2.47;;;;;;;;;;4889801;29;20364;-82
2023/12/10 04:28:44;;;;;;;14.25;2.30;;;;;;;;;;4891054;29;20065;-82
2023/12/10 04:31:10;;;;;;;12.60;2.80;;;;;;;;;;4892157;29;20049;-83
2023/12/10 04:33:36;;;;;;;15.25;2.58;;;;;;;;;;4876085;29;20057;-82
2023/12/10 04:36:03;;;;;;;13.13;2.42;;;;;;;;;;4876126;29;20526;-82
2023/12/10 04:38:29;;;;;;;14.05;2.53;;;;;;;;;;4875357;29;20071;-82
2023/12/10 04:40:55;;;;;;;10.75;2.70;;;;;;;;;;4876773;29;20191;-82
2023/12/10 04:43:21;;;;;;;9.90;3.42;;;;;;;;;;4864342;29;20136;-82
2023/12/10 04:45:48;;;;;;;12.77;3.15;;;;;;;;;;4856492;29;20616;-82
2023/12/10 04:48:14;;;;;;;12.95;3.17;;;;;;;;;;4872373;29;20058;-82
2023/12/10 04:50:40;;;;;;;15.02;3.22;;;;;;;;;;4857370;29;20049;-82
2023/12/10 04:53:07;;;;;;;11.85;3.40;;;;;;;;;;4871619;29;20042;-82
2023/12/10 04:55:33;;;;;;;14.43;3.10;;;;;;;;;;4857979;29;20124;-82
2023/12/10 04:57:59;;;;;;;18.67;3.10;;;;;;;;;;4867851;29;20464;-81
2023/12/10 05:00:25;;;;;;;13.15;3.00;;;;;;;;;;4873005;29;20045;-82
2023/12/10 05:02:52;;;;;;;16.20;3.35;;;;;;;;;;4873286;29;20053;-81
2023/12/10 05:05:18;;;;;;;15.65;3.67;;;;;;;;;;4875487;29;20100;-82
2023/12/10 05:07:44;;;;;;;16.42;3.38;;;;;;;;;;4875768;29;20049;-82
2023/12/10 05:10:10;;;;;;;14.60;2.97;;;;;;;;;;4858340;29;20555;-81
2023/12/10 05:12:36;;;;;;;20.17;3.50;;;;;;;;;;4858744;29;20049;-82
2023/12/10 05:15:02;;;;;;;15.68;3.20;;;;;;;;;;4889348;29;20525;-81
2023/12/10 05:17:28;;;;;;;16.55;2.95;;;;;;;;;;4874046;29;20052;-80
2023/12/10 05:19:54;;;;;;;17.15;3.30;;;;;;;;;;4874308;29;20059;-81
2023/12/10 05:22:21;;;;;;;10.90;2.47;;;;;;;;;;4875724;29;20628;-81
2023/12/10 05:24:47;;;;;;;12.10;2.88;;;;;;;;;;4890248;29;20574;-81
2023/12/10 05:27:13;;;;;;;15.35;3.05;;;;;;;;;;4890021;29;20530;-83
2023/12/10 05:29:39;;;;;;;17.90;3.20;;;;;;;;;;4875332;29;20491;-82
2023/12/10 05:32:05;;;;;;;17.83;3.35;;;;;;;;;;4866432;29;20490;-81
2023/12/10 05:34:32;;;;;;;13.52;3.33;;;;;;;;;;4872962;29;20091;-81
2023/12/10 05:36:58;;;;;;;13.18;2.90;;;;;;;;;;4874927;29;20060;-81
2023/12/10 05:39:25;;;;;;;15.02;2.45;;;;;;;;;;4874353;29;20053;-81
2023/12/10 05:41:51;;;;;;;17.30;3.13;;;;;;;;;;4875805;29;20053;-81
2023/12/10 05:44:17;;;;;;;10.63;2.55;;;;;;;;;;4875550;29;20048;-80
2023/12/10 05:46:43;;;;;;;6.18;1.92;;;;;;;;;;4867077;29;20472;-82
2023/12/10 05:49:09;;;;;;;16.52;3.08;;;;;;;;;;4856571;29;20102;-81
2023/12/10 05:51:36;;;;;;;16.67;3.63;;;;;;;;;;4872396;29;20112;-81
2023/12/10 05:54:02;;;;;;;14.82;2.53;;;;;;;;;;4858123;29;20075;-82
2023/12/10 05:56:28;;;;;;;10.73;2.55;;;;;;;;;;4857691;29;20114;-82
2023/12/10 05:58:54;;;;;;;11.63;2.58;;;;;;;;;;4874571;29;20407;-80
2023/12/10 06:01:20;;;;;;;16.60;2.50;;;;;;;;;;4893971;29;20824;-82
2023/12/10 06:03:47;;;;;;;11.68;2.67;;;;;;;;;;4877958;29;20057;-81
2023/12/10 06:06:12;;;;;;;12.82;2.50;;;;;;;;;;4894317;29;20091;-82
2023/12/10 06:08:39;;;;;;;13.65;3.08;;;;;;;;;;4867040;29;20080;-82
2023/12/10 06:11:06;;;;;;;11.48;2.30;;;;;;;;;;4870295;29;20057;-82
2023/12/10 06:13:34;;;;;;;12.63;2.63;;;;;;;;;;4857508;29;20579;-81
2023/12/10 06:16:00;;;;;;;10.05;2.13;;;;;;;;;;4874769;29;20069;-82
2023/12/10 06:18:26;;;;;;;16.98;3.75;;;;;;;;;;4874120;29;20056;-83
2023/12/10 06:20:53;;;;;;;13.85;2.60;;;;;;;;;;4877144;29;20104;-84
2023/12/10 06:23:19;;;;;;;20.75;3.78;;;;;;;;;;4877626;29;20168;-83
2023/12/10 06:25:45;;;;;;;15.85;4.03;;;;;;;;;;4877420;29;20562;-84
2023/12/10 06:28:12;;;;;;;22.65;3.17;;;;;;;;;;4877475;29;20100;-83
2023/12/10 06:30:38;;;;;;;17.77;3.22;;;;;;;;;;4865567;29;20069;-82
2023/12/10 06:33:04;;;;;;;20.10;3.83;;;;;;;;;;4861735;29;20053;-83
2023/12/10 06:35:30;;;;;;;13.73;3.10;;;;;;;;;;4878377;29;20403;-82
2023/12/10 06:37:59;;;;;;;18.33;3.53;;;;;;;;;;4892481;29;20102;-83
2023/12/10 06:40:25;;;;;;;23.60;4.32;;;;;;;;;;4878930;29;20419;-82
2023/12/10 06:42:52;;;;;;;15.02;2.85;;;;;;;;;;4877540;29;20837;-82
2023/12/10 06:45:19;;;;;;;21.83;4.30;;;;;;;;;;4873042;29;20490;-81
2023/12/10 06:47:46;;;;;;;23.05;3.50;;;;;;;;;;4876584;29;20071;-80
2023/12/10 06:50:12;;;;;;;21.58;3.95;;;;;;;;;;4876137;29;20068;-82
2023/12/10 06:52:38;;;;;;;24.48;3.53;;;;;;;;;;4876630;29;20604;-82
2023/12/10 06:55:04;;;;;;;20.38;4.10;;;;;;;;;;4888074;29;20376;-80
2023/12/10 06:57:30;;;;;;;26.77;3.53;;;;;;;;;;4874646;29;20049;-80
2023/12/10 06:59:56;;;;;;;22.25;3.92;;;;;;;;;;4874200;29;20403;-81
2023/12/10 07:02:22;;;;;;;16.77;3.90;;;;;;;;;;4876072;29;20041;-80
2023/12/10 07:04:48;;;;;;;23.50;4.28;;;;;;;;;;4877540;29;20415;-84
2023/12/10 07:07:14;;;;;;;17.10;3.20;;;;;;;;;;4875226;29;20495;-81
2023/12/10 07:09:40;;;;;;;15.15;3.60;;;;;;;;;;4877261;29;20049;-81
2023/12/10 07:12:06;;;;;;;15.27;2.80;;;;;;;;;;4877938;29;20053;-81
2023/12/10 07:14:32;;;;;;;17.40;3.28;;;;;;;;;;4877411;29;20045;-81
2023/12/10 07:16:58;;;;;;;13.70;3.30;;;;;;;;;;4864928;29;20045;-82
2023/12/10 07:19:24;;;;;;;10.93;2.58;;;;;;;;;;4874369;29;20056;-82
2023/12/10 07:21:52;;;;;;;17.67;3.33;;;;;;;;;;4888676;29;20601;-82
2023/12/10 07:24:19;;;;;;;15.00;2.85;;;;;;;;;;4876952;29;20076;-82
2023/12/10 07:26:45;;;;;;;14.45;2.53;;;;;;;;;;4877492;29;20140;-81
2023/12/10 07:29:11;;;;;;;14.27;2.50;;;;;;;;;;4876107;29;20104;-82
2023/12/10 07:31:37;;;;;;;13.38;3.05;;;;;;;;;;4876552;29;20128;-81
2023/12/10 07:34:03;;;;;;;11.02;2.95;;;;;;;;;;4876296;29;20056;-81
2023/12/10 07:36:29;;;;;;;16.23;3.17;;;;;;;;;;4865029;29;20053;-82
2023/12/10 07:38:55;;;;;;;11.38;2.53;;;;;;;;;;4875753;29;20045;-83
2023/12/10 07:41:21;;;;;;;14.02;2.53;;;;;;;;;;4876639;29;20396;-81
2023/12/10 07:43:47;;;;;;;14.93;3.22;;;;;;;;;;4878119;29;20516;-82
2023/12/10 07:46:14;;;;;;;13.13;3.00;;;;;;;;;;4876822;29;20135;-82
2023/12/10 07:48:40;;;;;;;15.10;3.20;;;;;;;;;;4876091;29;20139;-81
2023/12/10 07:51:06;;;;;;;19.08;3.17;;;;;;;;;;4875443;29;20172;-81
2023/12/10 07:53:32;;;;;;;13.88;2.33;;;;;;;;;;4875324;29;20041;-80
2023/12/10 07:55:58;;;;;;;16.63;2.85;;;;;;;;;;4866552;29;20049;-80
2023/12/10 07:58:24;;;;;;;17.08;2.70;;;;;;;;;;4871544;29;20136;-79
2023/12/10 08:00:50;;;;;;;14.57;2.83;;;;;;;;;;4872909;29;20045;-80
2023/12/10 08:03:16;;;;;;;13.10;3.00;;;;;;;;;;4858860;29;20417;-80
2023/12/10 08:05:42;;;;;;;18.50;2.75;;;;;;;;;;4856860;29;20049;-81
2023/12/10 08:08:08;;;;;;;13.07;2.70;;;;;;;;;;4886596;29;20053;-80
2023/12/10 08:10:34;;;;;;;18.50;2.78;;;;;;;;;;4888037;29;20060;-80
2023/12/10 08:13:00;;;;;;;12.13;2.53;;;;;;;;;;4875277;29;20053;-80
2023/12/10 08:15:26;;;;;;;8.70;2.53;;;;;;;;;;4867673;29;20512;-80
2023/12/10 08:17:52;;;;;;;16.40;3.17;;;;;;;;;;4872126;29;20132;-80
2023/12/10 08:20:18;;;;;;;15.07;2.88;;;;;;;;;;4857101;29;20113;-80
2023/12/10 08:22:44;;;;;;;19.48;2.97;;;;;;;;;;4855604;29;20056;-80
2023/12/10 08:25:11;;;;;;;12.77;2.70;;;;;;;;;;4872472;29;20046;-80
2023/12/10 08:27:37;;;;;;;18.95;3.85;;;;;;;;;;4874641;29;20053;-81
2023/12/10 08:30:06;;;;;;;15.05;2.92;;;;;;;;;;4859900;29;20057;-80
2023/12/10 08:32:33;;;;;;;20.25;3.95;;;;;;;;;;4874588;29;20093;-80
2023/12/10 08:35:01;;;;;;;14.55;3.33;;;;;;;;;;4871553;29;20487;-79
2023/12/10 08:37:27;;;;;;;18.75;3.22;;;;;;;;;;4893372;29;20143;-80
2023/12/10 08:39:53;;;;;;;20.08;3.00;;;;;;;;;;4877649;29;20470;-80
2023/12/10 08:42:19;;;;;;;12.82;2.40;;;;;;;;;;4876985;29;20476;-79
2023/12/10 08:44:45;;;;;;;15.85;2.92;;;;;;;;;;4874756;29;20057;-81
2023/12/10 08:47:11;;;;;;;14.90;3.00;;;;;;;;;;4874772;29;20424;-81
2023/12/10 08:49:37;;;;;;;16.80;2.92;;;;;;;;;;4858400;29;20041;-81
2023/12/10 08:52:03;;;;;;;22.38;3.47;;;;;;;;;;4862018;29;20041;-81
2023/12/10 08:54:29;;;;;;;18.20;3.47;;;;;;;;;;4857094;29;20049;-82
2023/12/10 08:56:55;;;;;;;15.75;2.60;;;;;;;;;;4883717;29;20225;-81
2023/12/10 08:59:21;;;;;;;19.38;3.85;;;;;;;;;;4875867;29;20044;-81
2023/12/10 09:01:47;;;;;;;15.90;2.78;;;;;;;;;;4890133;29;20173;-81
2023/12/10 09:04:13;;;;;;;17.35;3.25;;;;;;;;;;4890452;29;20100;-81
2023/12/10 09:06:39;;;;;;;20.27;3.20;;;;;;;;;;4887028;29;20530;-81
2023/12/10 09:09:05;;;;;;;26.33;3.65;;;;;;;;;;4863340;29;20057;-80
2023/12/10 09:11:31;;;;;;;20.40;3.53;;;;;;;;;;4856293;29;20057;-80
2023/12/10 09:13:57;;;;;;;24.45;3.88;;;;;;;;;;4857002;29;20136;-80
2023/12/10 09:16:23;;;;;;;22.40;4.18;;;;;;;;;;4870927;29;20408;-80
2023/12/10 09:18:49;;;;;;;22.48;3.63;;;;;;;;;;4860844;29;20047;-80
2023/12/10 09:21:15;;;;;;;23.58;4.22;;;;;;;;;;4874090;29;20053;-79
2023/12/10 09:23:43;;;;;;;21.58;4.22;;;;;;;;;;4853969;29;20049;-81
2023/12/10 09:26:10;;;;;;;27.98;4.35;;;;;;;;;;4884862;29;20521;-81
2023/12/10 09:28:36;;;;;;;24.35;3.78;;;;;;;;;;4874957;29;20067;-79
2023/12/10 09:31:03;;;;;;;29.60;5.13;;;;;;;;;;4874015;29;20511;-81
2023/12/10 09:33:31;;;;;;;32.85;5.35;;;;;;;;;;4874505;29;20044;-82
2023/12/10 09:35:57;;;;;;;25.98;4.80;;;;;;;;;;4874737;29;20128;-81
2023/12/10 09:38:23;;;;;;;23.60;4.65;;;;;;;;;;4869589;29;20057;-80
2023/12/10 09:40:49;;;;;;;29.30;5.05;;;;;;;;;;4870572;29;20799;-80
2023/12/10 09:43:15;;;;;;;28.42;5.22;;;;;;;;;;4874333;29;20108;-79
2023/12/10 09:45:41;;;;;;;32.45;4.30;;;;;;;;;;4875201;29;20500;-79
2023/12/10 09:48:07;;;;;;;26.08;4.60;;;;;;;;;;4873823;29;20053;-81
2023/12/10 09:50:38;;;;;;;22.70;4.63;;;;;;;;;;4873787;29;20049;-80
2023/12/10 09:53:21;;;;;;;22.65;4.50;;;;;;;;;;4873655;29;20052;-81
2023/12/10 09:55:47;;;;;;;27.33;5.25;;;;;;;;;;4874665;29;20052;-80
2023/12/10 09:58:14;;;;;;;24.08;4.85;;;;;;;;;;4874766;29;20499;-80
2023/12/10 10:00:40;;;;;;;20.52;4.63;;;;;;;;;;4875464;29;20049;-80
2023/12/10 10:03:06;;;;;;;30.83;4.97;;;;;;;;;;4874758;29;20072;-80
2023/12/10 10:05:35;;;;;;;33.13;4.85;;;;;;;;;;4874271;29;20685;-79
2023/12/10 10:08:02;;;;;;;26.08;4.88;;;;;;;;;;4874144;29;20419;-80
2023/12/10 10:10:29;;;;;;;30.17;5.18;;;;;;;;;;4875324;29;20052;-80
2023/12/10 10:12:56;;;;;;;27.23;5.63;;;;;;;;;;4860005;29;20090;-80
2023/12/10 10:15:28;;;;;;;27.33;5.20;;;;;;;;;;4859792;29;20049;-80
2023/12/10 10:17:55;;;;;;;28.52;5.43;;;;;;;;;;4874161;29;20405;-80
2023/12/10 10:20:22;;;;;;;27.58;4.65;;;;;;;;;;4874672;29;20433;-80
2023/12/10 10:22:48;;;;;;;26.08;4.97;;;;;;;;;;4874310;29;20049;-80
2023/12/10 10:25:15;;;;;;;23.17;4.78;;;;;;;;;;4874729;29;20045;-79
2023/12/10 10:27:41;;;;;;;27.83;4.63;;;;;;;;;;4874476;29;20059;-80
2023/12/10 10:30:07;;;;;;;26.77;5.95;;;;;;;;;;4875538;29;20041;-80
2023/12/10 10:32:34;;;;;;;23.88;4.68;;;;;;;;;;4868776;29;20463;-80
2023/12/10 10:35:03;;;;;;;28.88;5.30;;;;;;;;;;4856412;29;20049;-78
2023/12/10 10:37:29;;;;;;;25.63;4.95;;;;;;;;;;4854984;29;20061;-79
2023/12/10 10:39:56;;;;;;;26.98;4.88;;;;;;;;;;4856365;29;20054;-79
2023/12/10 10:42:22;;;;;;;27.23;4.45;;;;;;;;;;4856604;29;20052;-79
2023/12/10 10:44:48;;;;;;;22.23;4.30;;;;;;;;;;4854536;29;20060;-81
2023/12/10 10:47:18;;;;;;;20.38;4.13;;;;;;;;;;4866296;29;20045;-79
2023/12/10 10:49:45;;;;;;;24.80;4.25;;;;;;;;;;4858932;29;20061;-79
2023/12/10 10:52:13;;;;;;;24.13;5.47;;;;;;;;;;4855080;29;20052;-79
2023/12/10 10:54:40;;;;;;;26.98;4.72;;;;;;;;;;4855443;29;20949;-79
2023/12/10 10:57:06;;;;;;;29.00;5.20;;;;;;;;;;4855580;29;20132;-79
2023/12/10 10:59:32;;;;;;;26.23;5.20;;;;;;;;;;4854561;29;20133;-80
2023/12/10 11:02:02;;;;;;;23.10;4.43;;;;;;;;;;4856356;29;20049;-82
2023/12/10 11:04:49;;;;;;;21.65;4.45;;;;;;;;;;4870858;29;20053;-82
2023/12/10 11:07:16;;;;;;;23.92;4.80;;;;;;;;;;4873294;29;20049;-81
2023/12/10 11:10:01;;;;;;;21.88;3.85;;;;;;;;;;4877629;29;20462;-80
2023/12/10 11:12:40;;;;;;;19.45;3.75;;;;;;;;;;4875284;29;20120;-79
2023/12/10 11:15:21;;;;;;;23.80;4.05;;;;;;;;;;4877503;29;20053;-79
2023/12/10 11:17:57;;;;;;;20.63;4.05;;;;;;;;;;4877347;29;20416;-80
2023/12/10 11:20:32;;;;;;;23.45;3.88;;;;;;;;;;4873015;29;20072;-82
2023/12/10 11:22:58;;;;;;;18.88;3.65;;;;;;;;;;4886015;29;20910;-82
2023/12/10 11:25:25;;;;;;;22.55;4.05;;;;;;;;;;4858675;29;20045;-82
2023/12/10 11:27:51;;;;;;;15.63;3.80;;;;;;;;;;4859618;29;20424;-82
2023/12/10 11:30:17;;;;;;;22.83;3.75;;;;;;;;;;4858372;29;20152;-81
2023/12/10 11:32:43;;;;;;;26.00;4.50;;;;;;;;;;4857719;29;20049;-81
2023/12/10 11:35:10;;;;;;;20.73;4.00;;;;;;;;;;4873226;29;20381;-81
2023/12/10 11:37:36;;;;;;;21.88;4.25;;;;;;;;;;4873002;29;20411;-81
2023/12/10 11:40:03;;;;;;;16.98;3.58;;;;;;;;;;4874386;29;20049;-81
2023/12/10 11:42:29;;;;;;;18.73;3.95;;;;;;;;;;4870747;29;20049;-81
2023/12/10 11:44:55;;;;;;;21.30;3.92;;;;;;;;;;4877050;29;20101;-81
2023/12/10 11:47:21;;;;;;;21.33;4.30;;;;;;;;;;4875359;29;20080;-82
2023/12/10 11:49:47;;;;;;;18.23;3.83;;;;;;;;;;4876117;29;20033;-80
2023/12/10 11:52:13;;;;;;;21.02;4.40;;;;;;;;;;4875096;29;20089;-80
2023/12/10 11:54:40;;;;;;;24.73;4.80;;;;;;;;;;4874127;29;20057;-80
2023/12/10 11:57:06;;;;;;;22.48;3.42;;;;;;;;;;4874150;29;20137;-81
2023/12/10 11:59:32;;;;;;;19.02;4.00;;;;;;;;;;4875505;29;20072;-80
2023/12/10 12:01:58;;;;;;;29.60;4.80;;;;;;;;;;4873839;29;20073;-80
2023/12/10 12:04:24;;;;;;;20.33;4.68;;;;;;;;;;4875746;29;20045;-81
2023/12/10 12:06:50;;;;;;;25.63;5.05;;;;;;;;;;4874676;29;20036;-81
2023/12/10 12:09:20;;;;;;;24.77;4.20;;;;;;;;;;4875211;29;20067;-81
2023/12/10 12:11:46;;;;;;;22.05;4.22;;;;;;;;;;4875222;29;20132;-81
2023/12/10 12:14:15;;;;;;;16.25;4.90;;;;;;;;;;4874331;29;20048;-80
2023/12/10 12:16:41;;;;;;;20.83;4.68;;;;;;;;;;4874633;29;20531;-80
2023/12/10 12:19:08;;;;;;;28.33;4.72;;;;;;;;;;4874231;29;20136;-81
2023/12/10 12:21:34;;;;;;;23.75;4.63;;;;;;;;;;4876548;29;20041;-81
2023/12/10 12:24:00;;;;;;;23.38;4.50;;;;;;;;;;4876270;29;20041;-81
2023/12/10 12:26:26;;;;;;;24.83;3.70;;;;;;;;;;4874928;29;20132;-81
2023/12/10 12:28:52;;;;;;;20.95;4.63;;;;;;;;;;4873624;29;20052;-81
2023/12/10 12:31:19;;;;;;;19.63;4.18;;;;;;;;;;4874961;29;20051;-81
2023/12/10 12:33:45;;;;;;;16.02;3.10;;;;;;;;;;4875724;29;20152;-81
2023/12/10 12:36:11;;;;;;;17.35;3.40;;;;;;;;;;4875025;29;20102;-80
2023/12/10 12:38:37;;;;;;;18.02;3.90;;;;;;;;;;4872004;29;20089;-80
2023/12/10 12:41:03;;;;;;;19.42;3.60;;;;;;;;;;4875447;29;20048;-81
2023/12/10 12:43:29;;;;;;;19.83;3.75;;;;;;;;;;4874351;29;20132;-80
2023/12/10 12:45:55;;;;;;;15.60;3.47;;;;;;;;;;4875813;29;20049;-81
2023/12/10 12:48:21;;;;;;;16.73;2.97;;;;;;;;;;4872948;29;20052;-81
2023/12/10 12:50:47;;;;;;;15.75;3.80;;;;;;;;;;4874753;29;20048;-81
2023/12/10 12:53:13;;;;;;;13.18;3.67;;;;;;;;;;4874469;29;20041;-80
2023/12/10 12:55:39;;;;;;;15.60;3.30;;;;;;;;;;4874090;29;20100;-80
2023/12/10 12:58:05;;;;;;;12.65;3.42;;;;;;;;;;4871878;29;20396;-80
2023/12/10 13:00:31;;;;;;;18.15;3.55;;;;;;;;;;4857581;29;20136;-80
2023/12/10 13:02:59;;;;;;;17.25;3.08;;;;;;;;;;4874523;29;20555;-82
2023/12/10 13:05:25;;;;;;;20.88;3.78;;;;;;;;;;4875301;29;20468;-80
2023/12/10 13:07:51;;;;;;;12.68;2.97;;;;;;;;;;4875301;29;20056;-81
2023/12/10 13:10:18;;;;;;;18.05;3.42;;;;;;;;;;4876382;29;20084;-81
2023/12/10 13:12:44;;;;;;;16.70;3.33;;;;;;;;;;4873607;29;20458;-79
2023/12/10 13:15:10;;;;;;;20.17;3.90;;;;;;;;;;4863883;29;20555;-79
2023/12/10 13:17:36;;;;;;;18.45;3.95;;;;;;;;;;4875611;29;20049;-79
2023/12/10 13:20:03;;;;;;;17.10;3.60;;;;;;;;;;4874788;29;20381;-80
2023/12/10 13:22:29;;;;;;;17.27;4.00;;;;;;;;;;4873496;29;20503;-80
2023/12/10 13:24:55;;;;;;;18.42;3.17;;;;;;;;;;4873531;29;20049;-80
2023/12/10 13:27:21;;;;;;;14.95;3.92;;;;;;;;;;4871920;29;20072;-80
2023/12/10 13:29:47;;;;;;;17.63;3.25;;;;;;;;;;4873004;29;20419;-80
2023/12/10 13:32:13;;;;;;;20.35;4.00;;;;;;;;;;4855896;29;20045;-80
2023/12/10 13:34:39;;;;;;;23.35;3.75;;;;;;;;;;4864857;29;20055;-80
2023/12/10 13:37:05;;;;;;;17.15;3.00;;;;;;;;;;4874675;29;20535;-80
2023/12/10 13:39:31;;;;;;;18.02;3.55;;;;;;;;;;4875013;29;20503;-81
2023/12/10 13:41:57;;;;;;;16.83;3.25;;;;;;;;;;4875234;29;20049;-81
2023/12/10 13:44:23;;;;;;;14.88;2.85;;;;;;;;;;4874923;29;20052;-80
2023/12/10 13:46:49;;;;;;;10.80;2.97;;;;;;;;;;4875320;29;20091;-80
2023/12/10 13:49:15;;;;;;;21.75;4.05;;;;;;;;;;4874012;29;20199;-81
2023/12/10 13:51:42;;;;;;;13.23;4.03;;;;;;;;;;4874699;29;20048;-78
2023/12/10 13:54:08;;;;;;;16.95;3.50;;;;;;;;;;4874571;29;20052;-80
2023/12/10 13:56:34;;;;;;;16.75;4.05;;;;;;;;;;4874680;29;20044;-79
2023/12/10 13:59:00;;;;;;;16.27;3.97;;;;;;;;;;4874424;29;20511;-80
2023/12/10 14:01:26;;;;;;;19.73;3.80;;;;;;;;;;4874065;29;20049;-79
2023/12/10 14:03:52;;;;;;;15.75;3.78;;;;;;;;;;4874129;29;20096;-79
2023/12/10 14:06:18;;;;;;;12.88;3.55;;;;;;;;;;4874537;29;20049;-79
2023/12/10 14:08:45;;;;;;;14.00;3.30;;;;;;;;;;4873806;29;20060;-79
2023/12/10 14:11:11;;;;;;;14.02;3.53;;;;;;;;;;4889410;29;20056;-80
2023/12/10 14:13:37;;;;;;;17.42;3.88;;;;;;;;;;4875154;29;20423;-79
2023/12/10 14:16:03;;;;;;;16.05;3.10;;;;;;;;;;4875108;29;20045;-80
2023/12/10 14:18:29;;;;;;;12.30;3.15;;;;;;;;;;4875178;29;20061;-81
2023/12/10 14:20:55;;;;;;;16.88;3.80;;;;;;;;;;4873034;29;20413;-81
2023/12/10 14:23:21;;;;;;;19.52;3.80;;;;;;;;;;4878705;29;20049;-81
2023/12/10 14:25:47;;;;;;;17.35;3.20;;;;;;;;;;4874227;29;20069;-81
2023/12/10 14:28:13;;;;;;;13.07;3.25;;;;;;;;;;4866437;29;20484;-80